sensor_id;sensor_type;location;lat;lon;timestamp;P1;durP1;ratioP1;P2;durP2;ratioP2
65156;SDS011;52745;49.794;18.258;2023-03-01T00:01:36;84.25;;;33.35;;
65156;SDS011;52745;49.794;18.258;2023-03-01T00:04:03;91.18;;;33.15;;
65156;SDS011;52745;49.794;18.258;2023-03-01T00:06:30;85.53;;;34.05;;
65156;SDS011;52745;49.794;18.258;2023-03-01T00:08:57;78.43;;;33.38;;
65156;SDS011;52745;49.794;18.258;2023-03-01T00:11:25;87.15;;;33.55;;
65156;SDS011;52745;49.794;18.258;2023-03-01T00:13:54;80.10;;;34.00;;
65156;SDS011;52745;49.794;18.258;2023-03-01T00:16:27;80.80;;;33.50;;
65156;SDS011;52745;49.794;18.258;2023-03-01T00:18:56;85.85;;;33.58;;
65156;SDS011;52745;49.794;18.258;2023-03-01T00:21:24;82.35;;;33.25;;
65156;SDS011;52745;49.794;18.258;2023-03-01T00:23:52;79.00;;;32.38;;
65156;SDS011;52745;49.794;18.258;2023-03-01T00:26:19;78.15;;;32.00;;
65156;SDS011;52745;49.794;18.258;2023-03-01T00:28:48;83.20;;;32.65;;
65156;SDS011;52745;49.794;18.258;2023-03-01T00:31:16;87.38;;;34.28;;
65156;SDS011;52745;49.794;18.258;2023-03-01T00:33:47;81.78;;;32.45;;
65156;SDS011;52745;49.794;18.258;2023-03-01T00:36:14;83.55;;;32.03;;
65156;SDS011;52745;49.794;18.258;2023-03-01T00:38:43;84.80;;;33.35;;
65156;SDS011;52745;49.794;18.258;2023-03-01T00:41:11;79.38;;;31.83;;
65156;SDS011;52745;49.794;18.258;2023-03-01T00:43:40;87.10;;;32.53;;
65156;SDS011;52745;49.794;18.258;2023-03-01T00:46:09;78.38;;;32.72;;
65156;SDS011;52745;49.794;18.258;2023-03-01T00:48:37;82.80;;;31.98;;
65156;SDS011;52745;49.794;18.258;2023-03-01T00:51:37;83.70;;;32.58;;
65156;SDS011;52745;49.794;18.258;2023-03-01T00:53:58;72.57;;;30.42;;
65156;SDS011;52745;49.794;18.258;2023-03-01T00:56:27;78.22;;;32.20;;
65156;SDS011;52745;49.794;18.258;2023-03-01T00:58:55;77.97;;;31.60;;
65156;SDS011;52745;49.794;18.258;2023-03-01T01:01:23;88.28;;;31.30;;
65156;SDS011;52745;49.794;18.258;2023-03-01T01:03:55;79.05;;;31.23;;
65156;SDS011;52745;49.794;18.258;2023-03-01T01:06:24;74.80;;;30.23;;
65156;SDS011;52745;49.794;18.258;2023-03-01T01:08:53;79.22;;;30.25;;
65156;SDS011;52745;49.794;18.258;2023-03-01T01:11:21;77.47;;;30.52;;
65156;SDS011;52745;49.794;18.258;2023-03-01T01:13:49;83.68;;;31.90;;
65156;SDS011;52745;49.794;18.258;2023-03-01T01:16:17;80.30;;;32.22;;
65156;SDS011;52745;49.794;18.258;2023-03-01T01:18:45;78.65;;;29.67;;
65156;SDS011;52745;49.794;18.258;2023-03-01T01:21:13;81.45;;;30.95;;
65156;SDS011;52745;49.794;18.258;2023-03-01T01:23:43;76.57;;;30.98;;
65156;SDS011;52745;49.794;18.258;2023-03-01T01:26:12;80.80;;;31.33;;
65156;SDS011;52745;49.794;18.258;2023-03-01T01:28:44;76.53;;;31.38;;
65156;SDS011;52745;49.794;18.258;2023-03-01T01:31:12;76.00;;;29.45;;
65156;SDS011;52745;49.794;18.258;2023-03-01T01:33:39;76.57;;;30.45;;
65156;SDS011;52745;49.794;18.258;2023-03-01T01:36:06;72.22;;;30.58;;
65156;SDS011;52745;49.794;18.258;2023-03-01T01:38:34;84.35;;;31.90;;
65156;SDS011;52745;49.794;18.258;2023-03-01T01:41:02;83.75;;;29.80;;
65156;SDS011;52745;49.794;18.258;2023-03-01T01:43:33;76.43;;;31.10;;
65156;SDS011;52745;49.794;18.258;2023-03-01T01:46:03;81.53;;;31.02;;
65156;SDS011;52745;49.794;18.258;2023-03-01T01:48:39;74.90;;;29.90;;
65156;SDS011;52745;49.794;18.258;2023-03-01T01:51:11;87.30;;;31.02;;
65156;SDS011;52745;49.794;18.258;2023-03-01T01:53:40;82.38;;;31.02;;
65156;SDS011;52745;49.794;18.258;2023-03-01T01:56:10;84.93;;;30.85;;
65156;SDS011;52745;49.794;18.258;2023-03-01T01:58:39;79.22;;;30.10;;
65156;SDS011;52745;49.794;18.258;2023-03-01T02:01:08;79.63;;;30.38;;
65156;SDS011;52745;49.794;18.258;2023-03-01T02:03:36;82.10;;;30.67;;
65156;SDS011;52745;49.794;18.258;2023-03-01T02:06:22;79.68;;;30.42;;
65156;SDS011;52745;49.794;18.258;2023-03-01T02:09:05;74.15;;;28.25;;
65156;SDS011;52745;49.794;18.258;2023-03-01T02:11:34;82.60;;;30.80;;
65156;SDS011;52745;49.794;18.258;2023-03-01T02:14:04;75.43;;;30.10;;
65156;SDS011;52745;49.794;18.258;2023-03-01T02:16:31;86.47;;;29.08;;
65156;SDS011;52745;49.794;18.258;2023-03-01T02:18:58;75.47;;;29.30;;
65156;SDS011;52745;49.794;18.258;2023-03-01T02:21:37;75.50;;;28.48;;
65156;SDS011;52745;49.794;18.258;2023-03-01T02:24:13;75.13;;;29.98;;
65156;SDS011;52745;49.794;18.258;2023-03-01T02:26:53;82.97;;;30.85;;
65156;SDS011;52745;49.794;18.258;2023-03-01T02:29:23;74.07;;;29.25;;
65156;SDS011;52745;49.794;18.258;2023-03-01T02:31:51;73.60;;;29.35;;
65156;SDS011;52745;49.794;18.258;2023-03-01T02:34:23;85.00;;;31.15;;
65156;SDS011;52745;49.794;18.258;2023-03-01T02:36:56;82.30;;;30.98;;
65156;SDS011;52745;49.794;18.258;2023-03-01T02:39:28;75.60;;;28.90;;
65156;SDS011;52745;49.794;18.258;2023-03-01T02:41:59;76.28;;;29.48;;
65156;SDS011;52745;49.794;18.258;2023-03-01T02:44:30;73.95;;;29.92;;
65156;SDS011;52745;49.794;18.258;2023-03-01T02:46:57;77.30;;;30.65;;
65156;SDS011;52745;49.794;18.258;2023-03-01T02:49:30;77.95;;;29.08;;
65156;SDS011;52745;49.794;18.258;2023-03-01T02:52:06;77.03;;;30.73;;
65156;SDS011;52745;49.794;18.258;2023-03-01T02:57:33;75.10;;;27.38;;
65156;SDS011;52745;49.794;18.258;2023-03-01T03:00:05;79.70;;;28.63;;
65156;SDS011;52745;49.794;18.258;2023-03-01T03:02:34;68.82;;;28.02;;
65156;SDS011;52745;49.794;18.258;2023-03-01T03:05:07;69.95;;;28.70;;
65156;SDS011;52745;49.794;18.258;2023-03-01T03:07:37;84.32;;;29.98;;
65156;SDS011;52745;49.794;18.258;2023-03-01T03:10:07;74.72;;;30.15;;
65156;SDS011;52745;49.794;18.258;2023-03-01T03:12:37;77.30;;;28.30;;
65156;SDS011;52745;49.794;18.258;2023-03-01T03:15:05;71.57;;;29.60;;
65156;SDS011;52745;49.794;18.258;2023-03-01T03:17:36;82.13;;;30.77;;
65156;SDS011;52745;49.794;18.258;2023-03-01T03:20:04;76.60;;;29.08;;
65156;SDS011;52745;49.794;18.258;2023-03-01T03:22:32;72.20;;;29.92;;
65156;SDS011;52745;49.794;18.258;2023-03-01T03:25:00;79.13;;;28.80;;
65156;SDS011;52745;49.794;18.258;2023-03-01T03:27:27;74.07;;;30.27;;
65156;SDS011;52745;49.794;18.258;2023-03-01T03:29:54;81.00;;;30.65;;
65156;SDS011;52745;49.794;18.258;2023-03-01T03:32:21;78.40;;;31.83;;
65156;SDS011;52745;49.794;18.258;2023-03-01T03:34:48;76.95;;;30.63;;
65156;SDS011;52745;49.794;18.258;2023-03-01T03:37:15;77.57;;;29.50;;
65156;SDS011;52745;49.794;18.258;2023-03-01T03:40:00;72.75;;;29.27;;
65156;SDS011;52745;49.794;18.258;2023-03-01T03:42:27;70.97;;;28.88;;
65156;SDS011;52745;49.794;18.258;2023-03-01T03:44:54;79.80;;;29.67;;
65156;SDS011;52745;49.794;18.258;2023-03-01T03:47:21;79.93;;;31.02;;
65156;SDS011;52745;49.794;18.258;2023-03-01T03:49:47;74.68;;;31.08;;
65156;SDS011;52745;49.794;18.258;2023-03-01T03:52:14;75.57;;;30.00;;
65156;SDS011;52745;49.794;18.258;2023-03-01T03:54:41;77.72;;;29.65;;
65156;SDS011;52745;49.794;18.258;2023-03-01T03:57:07;79.35;;;30.48;;
65156;SDS011;52745;49.794;18.258;2023-03-01T03:59:34;76.47;;;30.70;;
65156;SDS011;52745;49.794;18.258;2023-03-01T04:02:01;78.40;;;29.90;;
65156;SDS011;52745;49.794;18.258;2023-03-01T04:04:28;72.70;;;29.52;;
65156;SDS011;52745;49.794;18.258;2023-03-01T04:06:55;73.82;;;28.63;;
65156;SDS011;52745;49.794;18.258;2023-03-01T04:09:22;79.38;;;31.88;;
65156;SDS011;52745;49.794;18.258;2023-03-01T04:11:48;80.00;;;30.10;;
65156;SDS011;52745;49.794;18.258;2023-03-01T04:14:15;79.18;;;30.52;;
65156;SDS011;52745;49.794;18.258;2023-03-01T04:16:42;78.43;;;30.80;;
65156;SDS011;52745;49.794;18.258;2023-03-01T04:19:09;69.15;;;28.38;;
65156;SDS011;52745;49.794;18.258;2023-03-01T04:21:35;76.57;;;31.60;;
65156;SDS011;52745;49.794;18.258;2023-03-01T04:24:03;79.18;;;31.60;;
65156;SDS011;52745;49.794;18.258;2023-03-01T04:26:30;68.82;;;29.67;;
65156;SDS011;52745;49.794;18.258;2023-03-01T04:28:57;76.65;;;31.55;;
65156;SDS011;52745;49.794;18.258;2023-03-01T04:31:23;76.32;;;31.23;;
65156;SDS011;52745;49.794;18.258;2023-03-01T04:33:54;85.45;;;31.13;;
65156;SDS011;52745;49.794;18.258;2023-03-01T04:36:23;76.40;;;30.92;;
65156;SDS011;52745;49.794;18.258;2023-03-01T04:38:51;80.38;;;31.42;;
65156;SDS011;52745;49.794;18.258;2023-03-01T04:41:19;79.22;;;29.92;;
65156;SDS011;52745;49.794;18.258;2023-03-01T04:43:47;77.55;;;32.25;;
65156;SDS011;52745;49.794;18.258;2023-03-01T04:46:16;81.20;;;30.00;;
65156;SDS011;52745;49.794;18.258;2023-03-01T04:48:45;74.53;;;30.58;;
65156;SDS011;52745;49.794;18.258;2023-03-01T04:51:13;79.22;;;30.15;;
65156;SDS011;52745;49.794;18.258;2023-03-01T04:53:41;84.38;;;29.95;;
65156;SDS011;52745;49.794;18.258;2023-03-01T04:56:08;78.95;;;31.52;;
65156;SDS011;52745;49.794;18.258;2023-03-01T04:58:35;80.68;;;31.40;;
65156;SDS011;52745;49.794;18.258;2023-03-01T05:01:07;84.95;;;32.75;;
65156;SDS011;52745;49.794;18.258;2023-03-01T05:03:46;81.63;;;31.67;;
65156;SDS011;52745;49.794;18.258;2023-03-01T05:06:14;83.75;;;32.53;;
65156;SDS011;52745;49.794;18.258;2023-03-01T05:08:42;79.35;;;31.23;;
65156;SDS011;52745;49.794;18.258;2023-03-01T05:11:09;86.32;;;33.63;;
65156;SDS011;52745;49.794;18.258;2023-03-01T05:13:37;79.07;;;31.08;;
65156;SDS011;52745;49.794;18.258;2023-03-01T05:16:06;86.57;;;34.88;;
65156;SDS011;52745;49.794;18.258;2023-03-01T05:18:37;85.07;;;32.92;;
65156;SDS011;52745;49.794;18.258;2023-03-01T05:23:35;86.20;;;34.20;;
65156;SDS011;52745;49.794;18.258;2023-03-01T05:26:03;81.57;;;32.35;;
65156;SDS011;52745;49.794;18.258;2023-03-01T05:28:32;86.85;;;34.25;;
65156;SDS011;52745;49.794;18.258;2023-03-01T05:30:59;81.82;;;31.92;;
65156;SDS011;52745;49.794;18.258;2023-03-01T05:33:26;90.80;;;33.38;;
65156;SDS011;52745;49.794;18.258;2023-03-01T05:35:53;78.45;;;33.28;;
65156;SDS011;52745;49.794;18.258;2023-03-01T05:38:20;81.68;;;31.85;;
65156;SDS011;52745;49.794;18.258;2023-03-01T05:40:48;82.15;;;31.98;;
65156;SDS011;52745;49.794;18.258;2023-03-01T05:43:16;82.38;;;32.30;;
65156;SDS011;52745;49.794;18.258;2023-03-01T05:45:44;80.40;;;33.17;;
65156;SDS011;52745;49.794;18.258;2023-03-01T05:48:12;81.45;;;31.77;;
65156;SDS011;52745;49.794;18.258;2023-03-01T05:50:40;85.80;;;32.10;;
65156;SDS011;52745;49.794;18.258;2023-03-01T05:55:37;72.60;;;29.27;;
65156;SDS011;52745;49.794;18.258;2023-03-01T05:58:07;77.47;;;29.92;;
65156;SDS011;52745;49.794;18.258;2023-03-01T06:00:35;80.15;;;31.33;;
65156;SDS011;52745;49.794;18.258;2023-03-01T06:03:03;73.88;;;30.45;;
65156;SDS011;52745;49.794;18.258;2023-03-01T06:05:29;73.05;;;29.65;;
65156;SDS011;52745;49.794;18.258;2023-03-01T06:08:00;78.43;;;30.27;;
65156;SDS011;52745;49.794;18.258;2023-03-01T06:10:27;73.03;;;30.67;;
65156;SDS011;52745;49.794;18.258;2023-03-01T06:12:55;74.50;;;29.15;;
65156;SDS011;52745;49.794;18.258;2023-03-01T06:15:22;74.60;;;28.65;;
65156;SDS011;52745;49.794;18.258;2023-03-01T06:17:49;67.78;;;28.25;;
65156;SDS011;52745;49.794;18.258;2023-03-01T06:20:20;73.55;;;28.65;;
65156;SDS011;52745;49.794;18.258;2023-03-01T06:22:48;80.18;;;29.38;;
65156;SDS011;52745;49.794;18.258;2023-03-01T06:25:16;75.80;;;30.05;;
65156;SDS011;52745;49.794;18.258;2023-03-01T06:27:46;77.13;;;28.25;;
65156;SDS011;52745;49.794;18.258;2023-03-01T06:30:15;65.05;;;27.60;;
65156;SDS011;52745;49.794;18.258;2023-03-01T06:32:43;75.88;;;29.55;;
65156;SDS011;52745;49.794;18.258;2023-03-01T06:35:11;73.00;;;27.80;;
65156;SDS011;52745;49.794;18.258;2023-03-01T06:37:40;73.97;;;27.38;;
65156;SDS011;52745;49.794;18.258;2023-03-01T06:40:08;73.57;;;28.50;;
65156;SDS011;52745;49.794;18.258;2023-03-01T06:42:38;67.03;;;27.05;;
65156;SDS011;52745;49.794;18.258;2023-03-01T06:45:06;70.60;;;30.55;;
65156;SDS011;52745;49.794;18.258;2023-03-01T06:47:34;69.28;;;29.52;;
65156;SDS011;52745;49.794;18.258;2023-03-01T06:50:01;72.30;;;30.55;;
65156;SDS011;52745;49.794;18.258;2023-03-01T06:52:29;79.65;;;30.95;;
65156;SDS011;52745;49.794;18.258;2023-03-01T06:54:56;79.13;;;31.33;;
65156;SDS011;52745;49.794;18.258;2023-03-01T06:57:23;77.25;;;30.88;;
65156;SDS011;52745;49.794;18.258;2023-03-01T06:59:50;108.95;;;46.75;;
65156;SDS011;52745;49.794;18.258;2023-03-01T07:02:16;80.82;;;33.97;;
65156;SDS011;52745;49.794;18.258;2023-03-01T07:04:43;83.13;;;33.08;;
65156;SDS011;52745;49.794;18.258;2023-03-01T07:07:11;80.82;;;32.17;;
65156;SDS011;52745;49.794;18.258;2023-03-01T07:09:37;86.25;;;33.17;;
65156;SDS011;52745;49.794;18.258;2023-03-01T07:12:04;89.57;;;34.47;;
65156;SDS011;52745;49.794;18.258;2023-03-01T07:14:32;89.90;;;35.10;;
65156;SDS011;52745;49.794;18.258;2023-03-01T07:16:59;82.55;;;35.13;;
65156;SDS011;52745;49.794;18.258;2023-03-01T07:19:25;87.30;;;36.70;;
65156;SDS011;52745;49.794;18.258;2023-03-01T07:21:52;85.35;;;36.47;;
65156;SDS011;52745;49.794;18.258;2023-03-01T07:24:20;90.43;;;37.13;;
65156;SDS011;52745;49.794;18.258;2023-03-01T07:26:50;86.82;;;36.42;;
65156;SDS011;52745;49.794;18.258;2023-03-01T07:29:17;91.30;;;36.60;;
65156;SDS011;52745;49.794;18.258;2023-03-01T07:31:44;91.03;;;37.22;;
65156;SDS011;52745;49.794;18.258;2023-03-01T07:34:11;87.60;;;37.72;;
65156;SDS011;52745;49.794;18.258;2023-03-01T07:36:38;90.68;;;38.53;;
65156;SDS011;52745;49.794;18.258;2023-03-01T07:39:09;94.10;;;40.28;;
65156;SDS011;52745;49.794;18.258;2023-03-01T07:41:37;98.22;;;40.78;;
65156;SDS011;52745;49.794;18.258;2023-03-01T07:44:04;116.07;;;46.05;;
65156;SDS011;52745;49.794;18.258;2023-03-01T07:46:31;110.57;;;47.53;;
65156;SDS011;52745;49.794;18.258;2023-03-01T07:48:58;100.03;;;42.70;;
65156;SDS011;52745;49.794;18.258;2023-03-01T07:51:25;98.70;;;42.03;;
65156;SDS011;52745;49.794;18.258;2023-03-01T07:53:51;113.78;;;40.85;;
65156;SDS011;52745;49.794;18.258;2023-03-01T07:56:18;98.18;;;41.13;;
65156;SDS011;52745;49.794;18.258;2023-03-01T07:58:46;98.78;;;40.38;;
65156;SDS011;52745;49.794;18.258;2023-03-01T08:01:14;98.28;;;41.83;;
65156;SDS011;52745;49.794;18.258;2023-03-01T08:03:43;95.55;;;40.95;;
65156;SDS011;52745;49.794;18.258;2023-03-01T08:06:10;101.93;;;41.95;;
65156;SDS011;52745;49.794;18.258;2023-03-01T08:08:38;101.50;;;42.15;;
65156;SDS011;52745;49.794;18.258;2023-03-01T08:11:06;108.85;;;44.30;;
65156;SDS011;52745;49.794;18.258;2023-03-01T08:13:36;107.10;;;44.65;;
65156;SDS011;52745;49.794;18.258;2023-03-01T08:16:04;101.22;;;41.50;;
65156;SDS011;52745;49.794;18.258;2023-03-01T08:18:32;101.85;;;42.38;;
65156;SDS011;52745;49.794;18.258;2023-03-01T08:21:03;96.28;;;39.78;;
65156;SDS011;52745;49.794;18.258;2023-03-01T08:23:37;103.03;;;40.08;;
65156;SDS011;52745;49.794;18.258;2023-03-01T08:26:09;97.95;;;42.13;;
65156;SDS011;52745;49.794;18.258;2023-03-01T08:28:38;83.95;;;37.80;;
65156;SDS011;52745;49.794;18.258;2023-03-01T08:34:05;86.38;;;37.47;;
65156;SDS011;52745;49.794;18.258;2023-03-01T08:36:38;79.60;;;35.58;;
65156;SDS011;52745;49.794;18.258;2023-03-01T08:39:07;81.82;;;34.55;;
65156;SDS011;52745;49.794;18.258;2023-03-01T08:41:35;83.20;;;35.13;;
65156;SDS011;52745;49.794;18.258;2023-03-01T08:44:02;71.47;;;34.10;;
65156;SDS011;52745;49.794;18.258;2023-03-01T08:46:30;80.40;;;37.17;;
65156;SDS011;52745;49.794;18.258;2023-03-01T08:49:04;78.18;;;36.33;;
65156;SDS011;52745;49.794;18.258;2023-03-01T08:51:33;72.97;;;36.45;;
65156;SDS011;52745;49.794;18.258;2023-03-01T08:54:06;71.95;;;33.85;;
65156;SDS011;52745;49.794;18.258;2023-03-01T08:56:37;71.10;;;35.45;;
65156;SDS011;52745;49.794;18.258;2023-03-01T08:59:04;68.13;;;34.08;;
65156;SDS011;52745;49.794;18.258;2023-03-01T09:01:31;67.15;;;33.70;;
65156;SDS011;52745;49.794;18.258;2023-03-01T09:03:58;67.75;;;35.05;;
65156;SDS011;52745;49.794;18.258;2023-03-01T09:06:25;79.15;;;45.33;;
65156;SDS011;52745;49.794;18.258;2023-03-01T09:08:52;73.22;;;40.75;;
65156;SDS011;52745;49.794;18.258;2023-03-01T09:11:20;65.22;;;33.30;;
65156;SDS011;52745;49.794;18.258;2023-03-01T09:13:47;68.80;;;34.63;;
65156;SDS011;52745;49.794;18.258;2023-03-01T09:16:16;66.57;;;35.75;;
65156;SDS011;52745;49.794;18.258;2023-03-01T09:18:44;63.53;;;32.92;;
65156;SDS011;52745;49.794;18.258;2023-03-01T09:21:15;61.88;;;33.20;;
65156;SDS011;52745;49.794;18.258;2023-03-01T09:23:43;70.30;;;35.45;;
65156;SDS011;52745;49.794;18.258;2023-03-01T09:26:13;76.00;;;36.40;;
65156;SDS011;52745;49.794;18.258;2023-03-01T09:28:48;67.88;;;35.03;;
65156;SDS011;52745;49.794;18.258;2023-03-01T09:31:17;73.25;;;38.85;;
65156;SDS011;52745;49.794;18.258;2023-03-01T09:33:46;69.63;;;34.80;;
65156;SDS011;52745;49.794;18.258;2023-03-01T09:36:16;66.95;;;34.42;;
65156;SDS011;52745;49.794;18.258;2023-03-01T09:38:44;63.60;;;32.67;;
65156;SDS011;52745;49.794;18.258;2023-03-01T09:41:57;67.03;;;33.38;;
65156;SDS011;52745;49.794;18.258;2023-03-01T09:44:43;67.43;;;33.28;;
65156;SDS011;52745;49.794;18.258;2023-03-01T09:47:19;59.85;;;32.65;;
65156;SDS011;52745;49.794;18.258;2023-03-01T09:49:57;50.53;;;28.15;;
65156;SDS011;52745;49.794;18.258;2023-03-01T09:55:16;53.53;;;27.90;;
65156;SDS011;52745;49.794;18.258;2023-03-01T09:57:55;52.15;;;26.98;;
65156;SDS011;52745;49.794;18.258;2023-03-01T10:00:36;50.67;;;28.00;;
65156;SDS011;52745;49.794;18.258;2023-03-01T10:03:26;52.05;;;27.65;;
65156;SDS011;52745;49.794;18.258;2023-03-01T10:08:58;53.08;;;28.42;;
65156;SDS011;52745;49.794;18.258;2023-03-01T10:11:31;55.92;;;28.67;;
65156;SDS011;52745;49.794;18.258;2023-03-01T10:14:19;58.45;;;31.15;;
65156;SDS011;52745;49.794;18.258;2023-03-01T10:17:02;53.47;;;30.75;;
65156;SDS011;52745;49.794;18.258;2023-03-01T10:19:46;52.08;;;29.08;;
65156;SDS011;52745;49.794;18.258;2023-03-01T10:22:15;53.03;;;29.10;;
65156;SDS011;52745;49.794;18.258;2023-03-01T10:24:47;57.13;;;31.35;;
65156;SDS011;52745;49.794;18.258;2023-03-01T10:27:17;64.00;;;34.58;;
65156;SDS011;52745;49.794;18.258;2023-03-01T10:32:56;61.55;;;31.92;;
65156;SDS011;52745;49.794;18.258;2023-03-01T10:35:27;59.63;;;33.65;;
65156;SDS011;52745;49.794;18.258;2023-03-01T10:38:11;62.85;;;35.03;;
65156;SDS011;52745;49.794;18.258;2023-03-01T10:40:50;62.35;;;31.90;;
65156;SDS011;52745;49.794;18.258;2023-03-01T10:43:29;59.10;;;31.57;;
65156;SDS011;52745;49.794;18.258;2023-03-01T10:46:31;53.15;;;29.33;;
65156;SDS011;52745;49.794;18.258;2023-03-01T10:51:48;56.05;;;30.17;;
65156;SDS011;52745;49.794;18.258;2023-03-01T10:56:59;56.58;;;32.13;;
65156;SDS011;52745;49.794;18.258;2023-03-01T11:02:17;59.33;;;30.60;;
65156;SDS011;52745;49.794;18.258;2023-03-01T11:05:00;70.63;;;36.38;;
65156;SDS011;52745;49.794;18.258;2023-03-01T11:07:30;73.80;;;38.67;;
65156;SDS011;52745;49.794;18.258;2023-03-01T11:09:56;75.45;;;37.33;;
65156;SDS011;52745;49.794;18.258;2023-03-01T11:12:24;72.00;;;38.63;;
65156;SDS011;52745;49.794;18.258;2023-03-01T11:14:51;69.60;;;37.28;;
65156;SDS011;52745;49.794;18.258;2023-03-01T11:17:22;73.53;;;38.10;;
65156;SDS011;52745;49.794;18.258;2023-03-01T11:20:00;108.63;;;58.47;;
65156;SDS011;52745;49.794;18.258;2023-03-01T11:22:30;77.35;;;40.08;;
65156;SDS011;52745;49.794;18.258;2023-03-01T11:24:59;74.53;;;38.78;;
65156;SDS011;52745;49.794;18.258;2023-03-01T11:27:33;83.80;;;40.25;;
65156;SDS011;52745;49.794;18.258;2023-03-01T11:30:06;75.20;;;39.53;;
65156;SDS011;52745;49.794;18.258;2023-03-01T11:32:43;77.60;;;38.63;;
65156;SDS011;52745;49.794;18.258;2023-03-01T11:35:18;78.93;;;39.95;;
65156;SDS011;52745;49.794;18.258;2023-03-01T11:40:34;77.03;;;40.15;;
65156;SDS011;52745;49.794;18.258;2023-03-01T11:43:52;73.97;;;38.50;;
65156;SDS011;52745;49.794;18.258;2023-03-01T11:51:13;78.00;;;37.78;;
65156;SDS011;52745;49.794;18.258;2023-03-01T11:53:57;66.18;;;34.83;;
65156;SDS011;52745;49.794;18.258;2023-03-01T11:56:31;68.40;;;34.92;;
65156;SDS011;52745;49.794;18.258;2023-03-01T11:59:25;63.53;;;32.90;;
65156;SDS011;52745;49.794;18.258;2023-03-01T12:08:07;62.47;;;31.48;;
65156;SDS011;52745;49.794;18.258;2023-03-01T12:13:43;61.53;;;31.20;;
65156;SDS011;52745;49.794;18.258;2023-03-01T12:19:41;55.20;;;29.20;;
65156;SDS011;52745;49.794;18.258;2023-03-01T12:27:48;64.40;;;31.00;;
65156;SDS011;52745;49.794;18.258;2023-03-01T12:38:40;50.38;;;25.65;;
65156;SDS011;52745;49.794;18.258;2023-03-01T12:43:55;46.83;;;25.13;;
65156;SDS011;52745;49.794;18.258;2023-03-01T12:51:56;39.90;;;20.00;;
65156;SDS011;52745;49.794;18.258;2023-03-01T12:54:29;38.20;;;21.02;;
65156;SDS011;52745;49.794;18.258;2023-03-01T12:57:01;41.72;;;20.25;;
65156;SDS011;52745;49.794;18.258;2023-03-01T13:10:49;27.60;;;13.18;;
65156;SDS011;52745;49.794;18.258;2023-03-01T13:13:25;24.13;;;12.90;;
65156;SDS011;52745;49.794;18.258;2023-03-01T13:15:54;27.35;;;13.63;;
65156;SDS011;52745;49.794;18.258;2023-03-01T13:20:57;25.08;;;12.55;;
65156;SDS011;52745;49.794;18.258;2023-03-01T13:23:27;26.08;;;14.70;;
65156;SDS011;52745;49.794;18.258;2023-03-01T13:28:54;29.73;;;13.13;;
65156;SDS011;52745;49.794;18.258;2023-03-01T13:33:56;27.83;;;13.23;;
65156;SDS011;52745;49.794;18.258;2023-03-01T13:38:59;21.45;;;12.88;;
65156;SDS011;52745;49.794;18.258;2023-03-01T13:44:26;26.38;;;13.30;;
65156;SDS011;52745;49.794;18.258;2023-03-01T13:46:59;24.85;;;13.10;;
65156;SDS011;52745;49.794;18.258;2023-03-01T13:49:33;28.27;;;13.27;;
65156;SDS011;52745;49.794;18.258;2023-03-01T13:55:01;26.60;;;13.75;;
65156;SDS011;52745;49.794;18.258;2023-03-01T13:57:34;28.50;;;14.48;;
65156;SDS011;52745;49.794;18.258;2023-03-01T14:00:05;28.73;;;14.80;;
65156;SDS011;52745;49.794;18.258;2023-03-01T14:02:33;27.25;;;14.68;;
65156;SDS011;52745;49.794;18.258;2023-03-01T14:05:02;30.25;;;13.32;;
65156;SDS011;52745;49.794;18.258;2023-03-01T14:07:29;28.73;;;15.23;;
65156;SDS011;52745;49.794;18.258;2023-03-01T14:09:56;32.70;;;15.45;;
65156;SDS011;52745;49.794;18.258;2023-03-01T14:16:02;30.35;;;14.13;;
65156;SDS011;52745;49.794;18.258;2023-03-01T14:18:21;34.03;;;15.40;;
65156;SDS011;52745;49.794;18.258;2023-03-01T14:20:53;37.30;;;15.90;;
65156;SDS011;52745;49.794;18.258;2023-03-01T14:23:21;29.42;;;15.20;;
65156;SDS011;52745;49.794;18.258;2023-03-01T14:25:56;29.20;;;15.07;;
65156;SDS011;52745;49.794;18.258;2023-03-01T14:28:28;34.95;;;15.07;;
65156;SDS011;52745;49.794;18.258;2023-03-01T14:31:00;31.02;;;14.90;;
65156;SDS011;52745;49.794;18.258;2023-03-01T14:40:57;40.20;;;17.17;;
65156;SDS011;52745;49.794;18.258;2023-03-01T14:43:28;35.90;;;16.63;;
65156;SDS011;52745;49.794;18.258;2023-03-01T14:45:56;46.05;;;21.38;;
65156;SDS011;52745;49.794;18.258;2023-03-01T14:48:23;48.38;;;24.38;;
65156;SDS011;52745;49.794;18.258;2023-03-01T14:50:51;50.90;;;24.15;;
65156;SDS011;52745;49.794;18.258;2023-03-01T14:53:22;48.67;;;24.20;;
65156;SDS011;52745;49.794;18.258;2023-03-01T14:55:52;45.47;;;23.40;;
65156;SDS011;52745;49.794;18.258;2023-03-01T14:58:24;51.53;;;22.85;;
65156;SDS011;52745;49.794;18.258;2023-03-01T15:00:53;50.03;;;22.45;;
65156;SDS011;52745;49.794;18.258;2023-03-01T15:03:36;49.40;;;23.58;;
65156;SDS011;52745;49.794;18.258;2023-03-01T15:06:07;51.63;;;22.48;;
65156;SDS011;52745;49.794;18.258;2023-03-01T15:08:35;45.72;;;22.75;;
65156;SDS011;52745;49.794;18.258;2023-03-01T15:11:23;47.50;;;22.15;;
65156;SDS011;52745;49.794;18.258;2023-03-01T15:13:53;42.20;;;21.10;;
65156;SDS011;52745;49.794;18.258;2023-03-01T15:16:30;45.38;;;21.88;;
65156;SDS011;52745;49.794;18.258;2023-03-01T15:19:03;43.47;;;21.77;;
65156;SDS011;52745;49.794;18.258;2023-03-01T15:21:35;48.30;;;23.10;;
65156;SDS011;52745;49.794;18.258;2023-03-01T15:26:39;46.10;;;22.42;;
65156;SDS011;52745;49.794;18.258;2023-03-01T15:29:27;45.53;;;22.63;;
65156;SDS011;52745;49.794;18.258;2023-03-01T15:32:06;46.38;;;21.30;;
65156;SDS011;52745;49.794;18.258;2023-03-01T15:34:51;47.72;;;21.90;;
65156;SDS011;52745;49.794;18.258;2023-03-01T15:37:38;42.92;;;20.23;;
65156;SDS011;52745;49.794;18.258;2023-03-01T15:40:20;44.35;;;22.23;;
65156;SDS011;52745;49.794;18.258;2023-03-01T15:43:01;47.00;;;20.77;;
65156;SDS011;52745;49.794;18.258;2023-03-01T15:45:31;42.97;;;20.57;;
65156;SDS011;52745;49.794;18.258;2023-03-01T15:48:05;45.25;;;19.83;;
65156;SDS011;52745;49.794;18.258;2023-03-01T15:50:41;39.47;;;18.65;;
65156;SDS011;52745;49.794;18.258;2023-03-01T15:53:11;39.50;;;19.85;;
65156;SDS011;52745;49.794;18.258;2023-03-01T15:55:40;40.60;;;19.48;;
65156;SDS011;52745;49.794;18.258;2023-03-01T15:58:18;40.20;;;19.63;;
65156;SDS011;52745;49.794;18.258;2023-03-01T16:00:47;38.13;;;19.08;;
65156;SDS011;52745;49.794;18.258;2023-03-01T16:03:17;38.25;;;18.90;;
65156;SDS011;52745;49.794;18.258;2023-03-01T16:05:51;39.22;;;20.25;;
65156;SDS011;52745;49.794;18.258;2023-03-01T16:08:18;46.70;;;19.50;;
65156;SDS011;52745;49.794;18.258;2023-03-01T16:10:45;38.67;;;19.77;;
65156;SDS011;52745;49.794;18.258;2023-03-01T16:13:12;35.40;;;18.38;;
65156;SDS011;52745;49.794;18.258;2023-03-01T16:15:39;41.75;;;18.67;;
65156;SDS011;52745;49.794;18.258;2023-03-01T16:18:07;35.88;;;18.45;;
65156;SDS011;52745;49.794;18.258;2023-03-01T16:20:36;38.25;;;18.85;;